Time;durP1;ratioP1;P1;durP2;ratioP2;P2;SDS_P1;SDS_P2;PMS_P1;PMS_P2;Temp;Humidity;BMP_temperature;BMP_pressure;BME280_temperature;BME280_humidity;BME280_pressure;Samples;Min_cycle;Max_cycle;Signal;HPM_P1;HPM_P2
2022/05/26 00:02:06;;;;;;;20.00;9.98;;;;;;;19.21;63.67;101622.41;4991128;28;20050;-67
2022/05/26 00:04:31;;;;;;;19.30;9.70;;;;;;;18.66;65.98;101632.88;4988523;28;20042;-64
2022/05/26 00:06:58;;;;;;;19.27;9.68;;;;;;;18.61;65.96;101634.72;4990571;28;20034;-64
2022/05/26 00:09:24;;;;;;;18.73;10.60;;;;;;;18.37;66.64;101635.03;4990887;28;20096;-65
2022/05/26 00:11:50;;;;;;;20.92;10.45;;;;;;;19.14;64.39;101632.69;4991037;28;20042;-66
2022/05/26 00:14:15;;;;;;;21.35;11.63;;;;;;;19.06;64.89;101632.38;4973949;28;20050;-66
2022/05/26 00:16:43;;;;;;;18.27;11.57;;;;;;;18.94;64.88;101632.56;4991365;28;20462;-66
2022/05/26 00:19:10;;;;;;;25.15;13.38;;;;;;;19.31;63.66;101632.53;4990805;28;20042;-66
2022/05/26 00:21:36;;;;;;;21.50;12.57;;;;;;;18.94;64.77;101643.47;4984204;28;20560;-65
2022/05/26 00:24:02;;;;;;;24.10;11.38;;;;;;;18.86;64.67;101641.22;4992887;28;20030;-67
2022/05/26 00:26:28;;;;;;;24.80;12.88;;;;;;;19.10;64.45;101645.19;4993781;28;20026;-66
2022/05/26 00:28:53;;;;;;;21.45;13.38;;;;;;;19.59;62.86;101639.53;4994152;28;20034;-66
2022/05/26 00:31:19;;;;;;;23.45;12.82;;;;;;;19.15;64.59;101638.97;4993566;28;20039;-65
2022/05/26 00:33:44;;;;;;;32.25;13.20;;;;;;;18.73;65.56;101633.47;4983698;28;20039;-67
2022/05/26 00:36:13;;;;;;;27.40;13.55;;;;;;;19.23;63.75;101639.31;4983787;28;20623;-65
2022/05/26 00:38:39;;;;;;;32.33;14.32;;;;;;;19.32;63.55;101636.09;4993146;28;20533;-66
2022/05/26 00:41:11;;;;;;;31.95;14.43;;;;;;;19.26;63.81;101648.88;4984135;28;20097;-66
2022/05/26 00:43:42;;;;;;;21.88;13.48;;;;;;;19.54;63.08;101645.78;4984486;28;20542;-68
2022/05/26 00:46:43;;;;;;;29.40;14.52;;;;;;;19.49;62.92;101648.47;4981583;28;20030;-67
2022/05/26 00:49:15;;;;;;;30.73;14.52;;;;;;;19.34;63.54;101647.56;4969375;28;20143;-67
2022/05/26 00:51:40;;;;;;;26.83;13.38;;;;;;;19.55;63.18;101633.78;4968273;28;20038;-67
2022/05/26 00:54:15;;;;;;;22.25;12.45;;;;;;;18.98;64.38;101644.59;4970437;28;20589;-67
2022/05/26 00:56:45;;;;;;;25.08;12.68;;;;;;;19.60;62.33;101638.44;4968224;28;20071;-65
2022/05/26 00:59:18;;;;;;;25.23;13.13;;;;;;;19.78;62.13;101636.06;4970932;28;20070;-67
2022/05/26 01:01:44;;;;;;;25.33;14.07;;;;;;;19.28;63.06;101639.31;4971567;28;20483;-65
2022/05/26 01:04:14;;;;;;;31.20;15.13;;;;;;;19.17;64.09;101642.25;4970554;28;20042;-65
2022/05/26 01:06:59;;;;;;;25.67;13.75;;;;;;;19.64;62.55;101642.28;4970854;28;20053;-66
2022/05/26 01:09:25;;;;;;;38.00;15.70;;;;;;;19.53;63.05;101646.88;4970831;28;20046;-66
2022/05/26 01:11:50;;;;;;;26.98;14.40;;;;;;;19.60;62.72;101650.16;4970883;28;20519;-66
2022/05/26 01:14:20;;;;;;;25.63;14.18;;;;;;;19.43;63.07;101637.81;4970625;28;20050;-66
2022/05/26 01:17:17;;;;;;;29.83;13.68;;;;;;;19.81;62.12;101648.38;4971262;28;20126;-66
2022/05/26 01:19:57;;;;;;;38.45;14.15;;;;;;;19.27;63.80;101653.22;4970728;28;20051;-65
2022/05/26 01:23:07;;;;;;;28.25;13.90;;;;;;;19.14;63.67;101648.25;4970362;28;20035;-66
2022/05/26 01:26:23;;;;;;;21.27;14.18;;;;;;;19.38;63.43;101659.59;4970169;28;20154;-65
2022/05/26 01:28:57;;;;;;;28.88;13.95;;;;;;;19.62;62.23;101658.06;4935154;28;20043;-67
2022/05/26 01:31:49;;;;;;;36.67;16.52;;;;;;;19.33;62.91;101654.09;4951241;29;20647;-66
2022/05/26 01:34:40;;;;;;;36.60;13.55;;;;;;;18.84;65.16;101670.63;4950932;29;20047;-66
2022/05/26 01:37:14;;;;;;;;;;;;;;;19.37;63.30;101669.66;4951466;29;20052;-65
2022/05/26 01:40:31;;;;;;;28.33;14.57;;;;;;;19.01;64.26;101673.19;4951078;29;19950;-65
2022/05/26 01:43:20;;;;;;;31.55;14.00;;;;;;;19.50;63.00;101671.91;4912712;29;20064;-66
2022/05/26 01:45:51;;;;;;;27.20;14.23;;;;;;;19.54;63.25;101675.75;4912550;29;20048;-65
2022/05/26 01:48:26;;;;;;;37.75;15.13;;;;;;;19.52;62.83;101672.47;4912673;29;20040;-65
2022/05/26 01:51:00;;;;;;;29.75;14.05;;;;;;;19.69;62.43;101666.84;4912582;29;20060;-65
2022/05/26 01:53:40;;;;;;;36.22;15.68;;;;;;;19.74;62.23;101670.41;4912459;29;20231;-66
2022/05/26 01:56:09;;;;;;;21.88;13.30;;;;;;;19.91;61.52;101675.69;4912464;29;20080;-66
2022/05/26 01:58:47;;;;;;;37.95;16.23;;;;;;;19.75;61.77;101674.78;4896814;29;20048;-66
2022/05/26 02:01:21;;;;;;;38.67;14.90;;;;;;;19.69;62.22;101673.13;4904460;29;20048;-67
2022/05/26 02:03:49;;;;;;;30.60;15.45;;;;;;;19.60;62.41;101671.16;4929247;29;20599;-65
2022/05/26 02:06:51;;;;;;;27.80;14.13;;;;;;;19.33;63.10;101689.53;4931117;29;20055;-66
2022/05/26 02:09:23;;;;;;;32.13;13.95;;;;;;;19.35;63.49;101692.81;4874555;29;20394;-66
2022/05/26 02:12:08;;;;;;;31.85;13.32;;;;;;;19.48;63.16;101682.28;4874841;29;20486;-67
2022/05/26 02:14:45;;;;;;;32.00;14.02;;;;;;;19.28;63.67;101693.03;4945702;29;20085;-67
2022/05/26 02:17:32;;;;;;;33.08;14.57;;;;;;;19.02;64.51;101700.19;4950541;28;20027;-68
2022/05/26 02:20:06;;;;;;;35.92;15.52;;;;;;;19.39;63.98;101693.94;4950170;28;20146;-66
2022/05/26 02:22:51;;;;;;;29.65;13.90;;;;;;;19.20;63.87;101698.97;4950471;29;20069;-65
2022/05/26 02:25:22;;;;;;;30.63;14.93;;;;;;;19.95;61.65;101687.72;4949665;28;20074;-66
2022/05/26 02:27:52;;;;;;;27.55;13.32;;;;;;;19.50;62.47;101699.19;4950257;28;20042;-66
2022/05/26 02:30:21;;;;;;;28.98;14.35;;;;;;;19.51;63.34;101708.19;4950323;28;20535;-65
2022/05/26 02:32:49;;;;;;;39.95;15.15;;;;;;;18.97;65.19;101716.47;4950161;28;20097;-65
2022/05/26 02:35:18;;;;;;;47.10;14.88;;;;;;;19.26;63.89;101704.16;4949925;28;20491;-64
2022/05/26 02:37:47;;;;;;;37.63;15.68;;;;;;;19.78;62.34;101712.44;4950363;29;20045;-67
2022/05/26 02:40:13;;;;;;;31.13;12.75;;;;;;;19.02;64.64;101716.53;4949966;28;20115;-68
2022/05/26 02:42:48;;;;;;;43.83;14.70;;;;;;;19.72;62.82;101716.22;4949821;28;20051;-65
2022/05/26 02:45:18;;;;;;;41.53;13.95;;;;;;;19.73;62.33;101722.50;4952754;28;20074;-67
2022/05/26 02:48:03;;;;;;;27.02;12.55;;;;;;;20.30;60.76;101723.34;5010810;28;20042;-65
2022/05/26 02:50:36;;;;;;;34.80;13.85;;;;;;;20.06;61.14;101713.94;5010372;28;20040;-66
2022/05/26 02:53:19;;;;;;;32.10;13.35;;;;;;;20.08;61.68;101714.50;5010327;28;20112;-66
2022/05/26 02:56:10;;;;;;;39.53;14.50;;;;;;;19.59;62.82;101722.16;5011380;28;20037;-65
2022/05/26 02:58:57;;;;;;;38.20;13.10;;;;;;;19.96;61.83;101720.19;5007935;28;20054;-65
2022/05/26 03:01:39;;;;;;;42.28;13.45;;;;;;;20.03;61.97;101725.38;5009281;28;20073;-65
2022/05/26 03:04:13;;;;;;;36.20;13.23;;;;;;;20.34;60.61;101726.38;4992348;28;20026;-67
2022/05/26 03:06:49;;;;;;;48.30;14.57;;;;;;;20.15;60.61;101739.63;5010537;28;20073;-66
2022/05/26 03:09:16;;;;;;;38.35;12.18;;;;;;;19.72;61.87;101740.78;5009529;28;20037;-66
2022/05/26 03:11:59;;;;;;;48.88;12.48;;;;;;;19.72;61.80;101743.50;5006768;28;20056;-66
2022/05/26 03:14:25;;;;;;;40.65;12.73;;;;;;;19.67;61.69;101739.94;5007011;28;20046;-67
2022/05/26 03:16:51;;;;;;;40.70;12.45;;;;;;;20.28;59.95;101750.09;5006579;28;20481;-67
2022/05/26 03:19:18;;;;;;;29.95;11.15;;;;;;;20.36;59.54;101749.59;5006312;28;20034;-66
2022/05/26 03:21:44;;;;;;;31.00;10.25;;;;;;;20.42;59.03;101748.50;5007474;28;20023;-66
2022/05/26 03:24:10;;;;;;;28.40;10.05;;;;;;;21.10;56.91;101749.19;5006461;28;20420;-68
2022/05/26 03:26:36;;;;;;;24.83;8.50;;;;;;;20.80;57.69;101745.31;5009661;28;20042;-67
2022/05/26 03:29:03;;;;;;;28.13;9.30;;;;;;;20.81;57.42;101740.69;5009655;28;20501;-65
2022/05/26 03:31:30;;;;;;;28.70;8.98;;;;;;;20.47;58.76;101750.41;5010154;28;20084;-66
2022/05/26 03:42:17;;;;;;;36.70;12.18;;;;;;;20.98;57.88;101750.25;4988172;28;20052;-65
2022/05/26 03:44:42;;;;;;;36.00;8.80;;;;;;;20.34;59.89;101757.22;4987865;28;20108;-65
2022/05/26 03:47:08;;;;;;;53.45;11.43;;;;;;;20.54;59.53;101749.06;4988022;28;20038;-67
2022/05/26 03:49:33;;;;;;;34.25;10.73;;;;;;;20.24;60.27;101753.63;4988507;28;20077;-65
2022/05/26 03:51:59;;;;;;;44.40;9.90;;;;;;;20.42;60.16;101759.41;4988006;28;20336;-67
2022/05/26 03:54:25;;;;;;;36.33;9.85;;;;;;;20.53;59.78;101763.00;4967143;28;20039;-65
2022/05/26 03:56:50;;;;;;;29.73;9.52;;;;;;;20.39;60.04;101770.06;4968522;28;20144;-66
2022/05/26 03:59:15;;;;;;;30.67;8.95;;;;;;;20.44;59.82;101770.88;4968527;28;20039;-66
2022/05/26 04:01:41;;;;;;;48.80;11.90;;;;;;;20.46;59.18;101778.84;4967797;28;20050;-66
2022/05/26 04:04:07;;;;;;;31.15;9.13;;;;;;;20.73;58.49;101777.56;4968305;28;20121;-65
2022/05/26 04:06:32;;;;;;;35.28;8.80;;;;;;;20.29;60.30;101781.75;4968119;28;20039;-66
2022/05/26 04:08:59;;;;;;;31.50;9.82;;;;;;;20.72;59.18;101780.53;4968019;28;20035;-71
2022/05/26 04:11:24;;;;;;;44.88;10.38;;;;;;;20.64;58.64;101789.25;4972141;28;20096;-69
2022/05/26 04:13:51;;;;;;;26.15;8.07;;;;;;;20.05;60.52;101791.44;4972625;28;20125;-68
2022/05/26 04:16:17;;;;;;;40.38;10.15;;;;;;;19.94;60.88;101790.56;4992137;28;20045;-69
2022/05/26 04:18:43;;;;;;;36.90;9.35;;;;;;;20.72;58.27;101792.28;5013911;28;20034;-69
2022/05/26 04:21:10;;;;;;;37.92;8.50;;;;;;;20.64;58.96;101798.28;5011999;28;20067;-70
2022/05/26 04:23:36;;;;;;;44.75;12.52;;;;;;;20.95;57.46;101791.78;5013636;28;20034;-69
2022/05/26 04:26:04;;;;;;;46.03;12.25;;;;;;;20.47;58.60;101803.13;5013295;28;20044;-68
2022/05/26 04:28:30;;;;;;;23.83;7.30;;;;;;;21.01;57.40;101800.88;5014161;28;20037;-70
2022/05/26 04:30:55;;;;;;;33.05;7.97;;;;;;;20.90;57.71;101804.63;5013665;28;20042;-68
2022/05/26 04:33:21;;;;;;;45.00;8.50;;;;;;;20.65;58.63;101804.56;5013245;28;20064;-69
2022/05/26 04:35:46;;;;;;;35.70;7.68;;;;;;;20.54;58.51;101806.44;5013223;28;20038;-70
2022/05/26 04:38:12;;;;;;;32.70;7.88;;;;;;;20.79;57.52;101809.25;5013476;28;20046;-69
2022/05/26 04:40:39;;;;;;;24.83;8.52;;;;;;;20.92;57.28;101818.84;5013535;28;20084;-69
2022/05/26 04:43:05;;;;;;;37.75;8.43;;;;;;;20.72;58.13;101813.31;4995289;28;20076;-70
2022/05/26 04:45:31;;;;;;;26.20;7.40;;;;;;;20.99;57.81;101819.41;5013088;28;20046;-70
2022/05/26 04:47:57;;;;;;;37.72;8.55;;;;;;;20.41;59.24;101814.28;5012906;28;20034;-69
2022/05/26 04:50:23;;;;;;;25.40;7.75;;;;;;;20.84;57.66;101825.66;5012452;28;20092;-70
2022/05/26 04:52:49;;;;;;;27.38;6.30;;;;;;;21.18;56.60;101817.81;5013428;28;20045;-70
2022/05/26 04:55:15;;;;;;;29.75;7.60;;;;;;;20.67;58.10;101830.53;5012881;28;20175;-70
2022/05/26 04:57:41;;;;;;;26.60;7.90;;;;;;;21.07;57.05;101832.56;5012704;28;20046;-70
2022/05/26 05:00:12;;;;;;;27.08;6.43;;;;;;;20.51;57.68;101838.91;5012675;28;20034;-68
2022/05/26 05:02:38;;;;;;;28.40;7.28;;;;;;;21.23;55.40;101834.22;5012828;28;20034;-70
2022/05/26 05:05:05;;;;;;;22.50;4.60;;;;;;;21.07;55.98;101834.50;5012714;28;20517;-69
2022/05/26 05:07:31;;;;;;;26.55;5.40;;;;;;;20.91;56.02;101834.41;5013298;28;20056;-70
2022/05/26 05:09:56;;;;;;;19.70;5.28;;;;;;;20.17;57.94;101843.91;5012445;28;20042;-69
2022/05/26 05:12:22;;;;;;;23.80;6.45;;;;;;;20.79;56.14;101842.03;5012464;28;20030;-70
2022/05/26 05:14:50;;;;;;;29.60;6.53;;;;;;;21.13;54.71;101842.41;5012438;28;20034;-70
2022/05/26 05:17:18;;;;;;;21.70;4.70;;;;;;;20.87;55.51;101840.69;5012682;28;20456;-71
2022/05/26 05:19:44;;;;;;;17.67;4.55;;;;;;;21.21;54.49;101849.28;5012508;28;20038;-71
2022/05/26 05:22:26;;;;;;;17.92;3.92;;;;;;;21.36;54.29;101847.38;5010798;28;20034;-71
2022/05/26 05:24:57;;;;;;;19.52;3.80;;;;;;;21.24;54.32;101846.81;5008986;28;20042;-71
2022/05/26 05:27:46;;;;;;;29.30;5.00;;;;;;;20.57;55.29;101856.97;5012357;28;20037;-70
2022/05/26 05:30:19;;;;;;;24.55;4.85;;;;;;;21.11;54.04;101860.19;4951073;28;20165;-70
2022/05/26 05:33:12;;;;;;;16.95;3.25;;;;;;;21.16;53.59;101865.66;4951215;28;20031;-70
2022/05/26 05:35:55;;;;;;;19.13;3.85;;;;;;;21.75;52.18;101867.63;4894218;29;20037;-71
2022/05/26 05:38:21;;;;;;;16.85;4.50;;;;;;;22.18;51.09;101873.63;4893743;29;20055;-71
2022/05/26 05:40:47;;;;;;;17.58;3.17;;;;;;;21.78;51.44;101878.00;4894243;29;20052;-69
2022/05/26 05:43:13;;;;;;;17.08;3.10;;;;;;;22.22;50.80;101878.28;4893554;29;20107;-70
2022/05/26 05:45:39;;;;;;;17.98;3.13;;;;;;;22.17;50.72;101877.47;4885862;29;20510;-70
2022/05/26 05:48:06;;;;;;;14.15;3.97;;;;;;;22.29;49.86;101878.78;4875045;29;20044;-70
2022/05/26 05:50:31;;;;;;;8.02;2.30;;;;;;;21.16;50.30;101879.31;4875185;29;20338;-69
2022/05/26 05:52:57;;;;;;;9.82;2.05;;;;;;;21.51;50.47;101882.13;4875286;29;20076;-70
2022/05/26 05:55:23;;;;;;;13.35;3.13;;;;;;;21.48;50.28;101888.16;4875146;29;20240;-69
2022/05/26 05:57:49;;;;;;;9.85;2.15;;;;;;;21.94;49.74;101887.06;4875055;29;20533;-69
2022/05/26 06:00:14;;;;;;;13.40;3.35;;;;;;;21.55;50.33;101884.03;4867253;29;20052;-70
2022/05/26 06:02:40;;;;;;;10.57;2.55;;;;;;;22.22;49.03;101893.88;4875024;29;20041;-69
2022/05/26 06:05:06;;;;;;;9.88;2.47;;;;;;;21.41;50.87;101893.03;4874740;29;20049;-69
2022/05/26 06:07:31;;;;;;;12.35;2.65;;;;;;;21.51;50.30;101902.09;4904395;29;20079;-70
2022/05/26 06:09:57;;;;;;;11.77;2.05;;;;;;;21.41;50.70;101901.25;4931188;29;20083;-68
2022/05/26 06:12:22;;;;;;;13.85;3.38;;;;;;;21.47;50.64;101901.00;4964910;28;20037;-71
2022/05/26 06:14:49;;;;;;;13.82;1.90;;;;;;;21.66;50.19;101904.81;5011105;28;20118;-69
2022/05/26 06:17:15;;;;;;;10.35;2.45;;;;;;;21.55;50.10;101905.94;5010811;28;20032;-69
2022/05/26 06:19:41;;;;;;;6.93;2.08;;;;;;;21.26;51.09;101910.25;5011376;28;20038;-70
2022/05/26 06:22:12;;;;;;;13.32;2.80;;;;;;;21.23;51.54;101913.50;5010863;28;20030;-70
2022/05/26 06:24:39;;;;;;;14.65;2.28;;;;;;;21.85;50.34;101913.34;5010767;28;20430;-69
2022/05/26 06:29:49;;;;;;;15.18;2.63;;;;;;;21.07;51.94;101916.50;4992711;28;20030;-68
2022/05/26 06:29:53;;;;;;;14.60;2.75;;;;;;;21.12;51.25;101924.69;5010818;28;20559;-70
2022/05/26 06:37:49;;;;;;;9.93;2.08;;;;;;;20.73;52.40;101936.00;5012010;28;20494;-69
2022/05/26 06:40:15;;;;;;;10.43;2.63;;;;;;;21.41;50.60;101940.38;5010586;28;20125;-70
2022/05/26 06:42:41;;;;;;;15.93;2.30;;;;;;;21.13;51.71;101940.03;4996168;28;20046;-70
2022/05/26 06:45:06;;;;;;;6.13;1.88;;;;;;;21.06;52.20;101937.53;4990170;28;20129;-74
2022/05/26 06:47:32;;;;;;;8.38;2.38;;;;;;;21.57;50.83;101936.56;4991318;28;20062;-71
2022/05/26 06:49:57;;;;;;;10.82;2.53;;;;;;;22.31;49.54;101936.06;4991089;28;20037;-69
2022/05/26 06:52:24;;;;;;;10.90;2.85;;;;;;;22.90;47.49;101947.16;4991875;28;20038;-70
2022/05/26 06:54:50;;;;;;;7.20;1.65;;;;;;;21.18;51.19;101949.06;5006726;28;20026;-69
2022/05/26 06:57:16;;;;;;;14.60;2.45;;;;;;;20.70;52.02;101958.38;5010791;28;20448;-69
2022/05/26 06:59:42;;;;;;;11.32;3.03;;;;;;;21.80;49.60;101949.75;5010639;28;20045;-69
2022/05/26 07:02:10;;;;;;;8.23;1.48;;;;;;;21.56;50.00;101965.00;5010885;28;20108;-68
2022/05/26 07:04:37;;;;;;;12.93;2.13;;;;;;;21.52;50.67;101957.63;5011013;28;20132;-69
2022/05/26 07:07:02;;;;;;;11.52;2.75;;;;;;;21.74;50.06;101961.75;5011058;28;20034;-72
2022/05/26 07:09:28;;;;;;;9.00;1.58;;;;;;;22.08;48.85;101966.72;5010575;28;20044;-71
2022/05/26 07:11:54;;;;;;;6.85;1.40;;;;;;;21.41;49.65;101969.63;5010901;28;20323;-72
2022/05/26 07:14:20;;;;;;;5.55;1.10;;;;;;;21.51;48.86;101967.75;5010575;28;20084;-68
2022/05/26 07:16:46;;;;;;;6.65;1.63;;;;;;;21.05;49.31;101971.41;5011078;28;20466;-69
2022/05/26 07:19:13;;;;;;;10.63;2.15;;;;;;;21.81;46.76;101976.03;5010456;28;20052;-73
2022/05/26 07:21:40;;;;;;;15.00;1.98;;;;;;;21.46;48.16;101964.97;5010328;28;20508;-69
2022/05/26 07:24:05;;;;;;;5.78;1.30;;;;;;;21.70;47.46;101970.75;5010522;28;20046;-68
2022/05/26 07:26:32;;;;;;;10.10;1.98;;;;;;;22.01;46.82;101972.50;5010397;28;20567;-69
2022/05/26 07:28:59;;;;;;;4.00;0.88;;;;;;;21.87;45.57;101976.03;5010512;28;20116;-69
2022/05/26 07:31:25;;;;;;;8.60;1.45;;;;;;;21.75;45.77;101974.34;5011349;28;20032;-70
2022/05/26 07:33:50;;;;;;;2.78;0.73;;;;;;;21.22;46.76;101974.78;5010433;28;20038;-69
2022/05/26 07:41:46;;;;;;;3.13;0.75;;;;;;;22.10;44.16;101983.69;5010509;28;20393;-71
2022/05/26 07:44:12;;;;;;;4.35;1.10;;;;;;;22.00;44.10;101990.00;5011516;28;20060;-69
2022/05/26 07:46:38;;;;;;;12.38;1.02;;;;;;;21.92;43.68;101982.31;5014127;28;20030;-69
2022/05/26 07:49:05;;;;;;;2.85;0.93;;;;;;;22.19;43.75;101998.50;5004343;28;20210;-69
2022/05/26 07:51:31;;;;;;;3.33;0.68;;;;;;;21.68;42.78;101995.66;5000247;28;20556;-71
2022/05/26 07:53:56;;;;;;;2.22;0.60;;;;;;;21.85;42.24;101998.19;4983256;28;20043;-68
2022/05/26 07:56:23;;;;;;;6.07;0.85;;;;;;;21.82;42.03;101996.81;4984791;28;20038;-70
2022/05/26 07:58:49;;;;;;;2.85;0.65;;;;;;;21.53;43.03;101998.38;5003560;28;20029;-71
2022/05/26 08:01:14;;;;;;;3.22;0.77;;;;;;;21.83;42.59;102006.69;5006111;28;20033;-69
2022/05/26 08:03:39;;;;;;;4.65;0.90;;;;;;;21.87;42.58;102000.66;5002277;28;20117;-70
2022/05/26 08:06:06;;;;;;;4.95;0.73;;;;;;;22.63;41.31;102005.03;5002020;28;20042;-70
2022/05/26 08:08:33;;;;;;;7.93;1.40;;;;;;;21.76;42.59;101997.88;5004450;28;20548;-72
2022/05/26 08:10:58;;;;;;;4.25;1.02;;;;;;;22.36;41.39;101993.56;5003477;28;20395;-69
2022/05/26 08:13:23;;;;;;;3.25;0.70;;;;;;;22.70;41.45;101989.94;5002334;28;20022;-73
2022/05/26 08:15:49;;;;;;;2.20;0.80;;;;;;;22.22;41.64;101989.72;5012876;28;20026;-68
2022/05/26 08:18:16;;;;;;;2.35;0.70;;;;;;;22.10;41.78;101995.47;5005695;28;20034;-68
2022/05/26 08:20:41;;;;;;;2.65;0.57;;;;;;;22.88;39.56;102002.22;5015915;28;20441;-70
2022/05/26 08:23:07;;;;;;;3.88;1.05;;;;;;;22.41;40.54;101990.78;5015207;28;20021;-69
2022/05/26 08:25:34;;;;;;;3.90;0.60;;;;;;;22.38;39.73;102005.88;5001303;28;20030;-69
2022/05/26 08:27:59;;;;;;;4.75;0.57;;;;;;;22.89;39.79;102008.53;5009054;28;20034;-69
2022/05/26 08:30:25;;;;;;;3.35;0.70;;;;;;;21.94;41.39;102010.25;5014122;28;20057;-71
2022/05/26 08:32:55;;;;;;;7.32;0.73;;;;;;;22.36;40.14;102004.50;5002258;28;20119;-69
2022/05/26 08:35:21;;;;;;;4.75;0.85;;;;;;;23.09;39.05;102011.22;5006775;28;20145;-69
2022/05/26 08:37:47;;;;;;;2.50;0.35;;;;;;;22.76;39.34;102020.09;5013582;28;20572;-68
2022/05/26 08:40:29;;;;;;;6.80;0.90;;;;;;;22.65;38.79;102022.84;5019852;28;20258;-70
2022/05/26 08:42:54;;;;;;;3.28;0.68;;;;;;;23.45;37.83;102026.44;5005830;28;20474;-69
2022/05/26 08:45:20;;;;;;;3.05;0.50;;;;;;;22.01;39.41;102024.50;5001377;28;20077;-69
2022/05/26 08:47:48;;;;;;;4.65;0.73;;;;;;;21.87;40.22;102019.81;5003791;28;20033;-71
2022/05/26 08:50:25;;;;;;;5.10;0.95;;;;;;;22.99;38.99;102012.09;5000053;28;20516;-72
2022/05/26 08:52:58;;;;;;;2.65;0.65;;;;;;;23.68;38.85;102001.09;5014505;28;20117;-72
2022/05/26 08:55:39;;;;;;;1.98;0.60;;;;;;;23.55;37.74;102019.00;5008447;28;20061;-71
2022/05/26 08:58:10;;;;;;;3.25;1.02;;;;;;;22.90;39.39;102010.19;5006811;28;20040;-69
2022/05/26 09:00:38;;;;;;;2.60;0.52;;;;;;;23.32;38.72;102027.06;5006213;28;20046;-70
2022/05/26 09:03:23;;;;;;;6.40;0.70;;;;;;;23.72;38.07;102017.81;5012272;28;20039;-69
2022/05/26 09:05:54;;;;;;;5.45;0.70;;;;;;;23.27;39.04;102036.09;5011282;28;20056;-68
2022/05/26 09:13:57;;;;;;;3.33;0.80;;;;;;;22.93;40.63;102045.28;5011787;28;20045;-71
2022/05/26 09:16:22;;;;;;;5.35;0.70;;;;;;;22.88;40.40;102051.56;5014050;28;20029;-68
2022/05/26 09:19:12;;;;;;;3.30;0.73;;;;;;;23.35;39.85;102041.03;5006044;28;20130;-69
2022/05/26 09:21:38;;;;;;;3.72;1.05;;;;;;;23.00;40.14;102043.88;5012894;28;20385;-72
2022/05/26 09:24:25;;;;;;;3.33;0.73;;;;;;;23.28;40.21;102045.97;5011487;28;20037;-69
2022/05/26 09:27:37;;;;;;;5.88;1.42;;;;;;;23.49;39.34;102052.22;5011645;28;20113;-69
2022/05/26 09:30:17;;;;;;;2.17;0.80;;;;;;;23.95;38.90;102050.88;4932441;29;20047;-69
2022/05/26 09:32:43;;;;;;;3.88;0.90;;;;;;;23.04;40.16;102050.44;4933924;29;20492;-69
2022/05/26 09:35:15;;;;;;;4.00;1.40;;;;;;;23.53;39.41;102047.81;4932311;29;20470;-69
2022/05/26 09:37:45;;;;;;;13.25;1.33;;;;;;;23.88;39.45;102033.88;4923250;29;20023;-68
2022/05/26 09:40:19;;;;;;;4.97;0.68;;;;;;;23.60;39.48;102059.31;4936685;29;20641;-70
2022/05/26 09:42:51;;;;;;;9.57;0.80;;;;;;;24.58;38.75;102048.19;4932375;29;20036;-72
2022/05/26 09:45:18;;;;;;;5.25;1.48;;;;;;;24.20;39.47;102052.63;4936373;29;20035;-70
2022/05/26 09:47:54;;;;;;;3.30;0.80;;;;;;;22.93;41.51;102050.75;4933787;29;20479;-71
2022/05/26 09:50:35;;;;;;;7.88;1.23;;;;;;;23.08;40.91;102065.25;4934963;29;20114;-73
2022/05/26 09:53:03;;;;;;;8.10;1.48;;;;;;;23.63;39.55;102052.41;4937746;29;20040;-73
2022/05/26 09:55:32;;;;;;;3.63;1.08;;;;;;;23.89;40.44;102034.69;4935373;29;20031;-71
2022/05/26 09:58:27;;;;;;;5.07;1.23;;;;;;;24.04;39.14;102038.19;4936030;29;20035;-69
2022/05/26 10:00:55;;;;;;;2.80;0.90;;;;;;;23.82;39.42;102047.94;4933233;29;20055;-69
2022/05/26 10:03:32;;;;;;;4.60;1.23;;;;;;;23.67;40.12;102051.56;4938302;29;20759;-70
2022/05/26 10:06:15;;;;;;;5.57;1.25;;;;;;;23.18;41.27;102067.13;4938987;28;20494;-70
2022/05/26 10:09:02;;;;;;;2.47;0.93;;;;;;;23.31;41.58;102066.59;5004930;28;20141;-70
2022/05/26 10:12:02;;;;;;;6.95;1.30;;;;;;;23.47;41.09;102059.91;5009741;28;20034;-74
2022/05/26 10:14:51;;;;;;;7.10;1.08;;;;;;;24.13;40.01;102072.19;5015447;28;20125;-72
2022/05/26 10:17:44;;;;;;;7.78;1.40;;;;;;;24.65;38.71;102060.47;5015736;28;20061;-73
2022/05/26 10:20:48;;;;;;;4.32;1.17;;;;;;;24.36;40.32;102062.41;5012921;28;20621;-75
2022/05/26 10:23:42;;;;;;;3.28;0.90;;;;;;;23.56;40.10;102063.72;5015759;28;20046;-72
2022/05/26 10:26:26;;;;;;;3.78;0.77;;;;;;;24.16;37.82;102070.78;5013912;28;20030;-74
2022/05/26 10:29:22;;;;;;;2.78;0.70;;;;;;;24.65;37.71;102046.72;5015644;28;20038;-73
2022/05/26 10:32:32;;;;;;;2.53;1.08;;;;;;;24.58;38.81;102045.44;5016569;28;20045;-70
2022/05/26 10:35:18;;;;;;;2.25;0.77;;;;;;;23.95;38.93;102052.78;4916475;29;20127;-73
2022/05/26 10:37:49;;;;;;;8.52;1.13;;;;;;;23.58;38.10;102064.25;4916796;29;20118;-72
2022/05/26 10:40:43;;;;;;;4.00;0.88;;;;;;;23.24;40.25;102055.88;4918037;29;20044;-75
2022/05/26 10:43:29;;;;;;;5.38;0.93;;;;;;;23.30;40.38;102068.47;4917686;29;20055;-74
2022/05/26 10:45:59;;;;;;;5.35;0.80;;;;;;;24.11;39.96;102054.34;4915806;29;20044;-70
2022/05/26 10:48:39;;;;;;;4.55;1.23;;;;;;;24.81;38.84;102063.94;4919056;29;20068;-77
2022/05/26 10:51:18;;;;;;;3.55;0.90;;;;;;;24.77;37.53;102049.94;4914063;29;20064;-72
2022/05/26 10:53:59;;;;;;;2.47;0.68;;;;;;;23.86;38.70;102062.75;4915680;29;20039;-75
2022/05/26 10:56:49;;;;;;;3.15;0.88;;;;;;;23.67;37.84;102062.56;4911202;29;20075;-69
2022/05/26 10:59:26;;;;;;;6.38;1.50;;;;;;;23.89;37.91;102046.50;4909207;29;20076;-73
2022/05/26 11:01:59;;;;;;;5.70;1.35;;;;;;;24.31;38.69;102063.25;4915165;29;20520;-71
2022/05/26 11:04:24;;;;;;;1.95;0.57;;;;;;;24.64;37.88;102078.09;4916182;29;20044;-76
2022/05/26 11:06:53;;;;;;;2.03;0.88;;;;;;;24.54;37.41;102069.13;4914419;29;20482;-75
2022/05/26 11:09:36;;;;;;;6.93;1.17;;;;;;;24.53;37.47;102068.28;4976259;28;20030;-74
2022/05/26 11:12:09;;;;;;;7.40;1.15;;;;;;;25.09;36.47;102060.34;5009442;28;20046;-73
2022/05/26 11:17:52;;;;;;;3.85;0.70;;;;;;;24.88;37.59;102068.00;5007300;28;20096;-70
2022/05/26 11:20:22;;;;;;;4.88;0.93;;;;;;;24.59;36.73;102063.59;5006801;28;20052;-73
2022/05/26 11:22:51;;;;;;;0.95;0.50;;;;;;;24.81;35.26;102062.00;5015062;28;20125;-74
2022/05/26 11:25:25;;;;;;;2.13;1.10;;;;;;;25.27;35.71;102048.56;5014275;28;20058;-73
2022/05/26 11:27:56;;;;;;;7.13;1.15;;;;;;;25.30;35.97;102053.47;5014551;28;20030;-72
2022/05/26 11:36:17;;;;;;;7.10;1.00;;;;;;;24.60;36.29;102038.56;5006317;28;20045;-72
2022/05/26 11:38:48;;;;;;;3.55;0.63;;;;;;;24.70;34.64;102046.69;5012706;28;20026;-75
2022/05/26 11:41:49;;;;;;;5.25;1.00;;;;;;;24.67;35.65;102050.00;5005767;28;20602;-72
2022/05/26 11:44:36;;;;;;;1.92;0.70;;;;;;;24.56;36.37;102044.91;4996436;28;20050;-71
2022/05/26 11:47:31;;;;;;;3.22;1.33;;;;;;;25.46;35.74;102041.19;4991322;28;20487;-74
2022/05/26 11:49:57;;;;;;;2.75;0.70;;;;;;;24.36;36.11;102040.41;4988128;28;20030;-76
2022/05/26 11:52:31;;;;;;;5.63;1.20;;;;;;;25.00;36.15;102049.13;4981448;28;20442;-69
2022/05/26 11:54:59;;;;;;;6.05;0.80;;;;;;;25.44;34.85;102048.09;4988334;28;20456;-76
2022/05/26 11:57:34;;;;;;;2.22;0.63;;;;;;;25.23;35.18;102042.84;4983781;28;20113;-76
2022/05/26 12:00:15;;;;;;;4.28;1.02;;;;;;;24.89;36.20;102044.03;4988829;28;20125;-77
2022/05/26 12:02:45;;;;;;;7.93;2.17;;;;;;;25.11;35.83;102038.84;4995121;28;20030;-76
2022/05/26 12:05:29;;;;;;;6.90;0.95;;;;;;;24.62;36.38;102055.56;4992719;28;20102;-78
2022/05/26 12:08:01;;;;;;;3.28;0.88;;;;;;;25.12;35.21;102057.81;4977348;28;20495;-71
2022/05/26 12:10:29;;;;;;;4.90;0.93;;;;;;;24.08;37.61;102043.94;4984792;28;20046;-71
2022/05/26 12:13:19;;;;;;;5.18;0.80;;;;;;;25.47;36.27;102044.75;4985032;28;20118;-75
2022/05/26 12:16:10;;;;;;;6.38;1.13;;;;;;;25.41;35.17;102055.03;4982396;28;20066;-71
2022/05/26 12:18:49;;;;;;;5.82;1.10;;;;;;;25.41;35.10;102054.19;4986868;28;20031;-73